createdAt,value
2023-04-30T00:00:59.649Z,10.90
2023-04-30T00:03:28.512Z,9.90
2023-04-30T00:05:57.369Z,10.57
2023-04-30T00:08:27.228Z,11.63
2023-04-30T00:10:55.831Z,11.17
2023-04-30T00:13:24.682Z,10.93
2023-04-30T00:15:53.307Z,10.73
2023-04-30T00:18:23.497Z,9.90
2023-04-30T00:20:53.775Z,10.17
2023-04-30T00:23:22.322Z,11.40
2023-04-30T00:25:51.026Z,9.90
2023-04-30T00:28:19.795Z,10.23
2023-04-30T00:30:48.541Z,11.33
2023-04-30T00:33:17.391Z,11.40
2023-04-30T00:35:48.411Z,11.20
2023-04-30T00:38:17.100Z,10.67
2023-04-30T00:40:46.538Z,11.13
2023-04-30T00:43:15.271Z,11.37
2023-04-30T00:45:44.050Z,10.37
2023-04-30T00:48:12.960Z,10.73
2023-04-30T00:50:42.910Z,10.57
2023-04-30T00:53:13.982Z,11.10
2023-04-30T00:55:43.484Z,11.97
2023-04-30T00:58:12.240Z,10.47
2023-04-30T01:00:43.393Z,11.60
2023-04-30T01:03:12.125Z,12.57
2023-04-30T01:05:40.896Z,11.70
2023-04-30T01:08:11.841Z,13.50
2023-04-30T01:10:47.238Z,11.97
2023-04-30T01:13:24.117Z,10.50
2023-04-30T01:16:00.954Z,12.23
2023-04-30T01:18:35.178Z,11.47
2023-04-30T01:21:06.724Z,13.07
2023-04-30T01:23:51.793Z,11.83
2023-04-30T01:26:34.435Z,12.20
2023-04-30T01:29:05.716Z,13.53
2023-04-30T01:31:35.313Z,12.57
2023-04-30T01:34:04.806Z,11.33
2023-04-30T01:36:52.324Z,11.80
2023-04-30T01:39:43.968Z,11.47
2023-04-30T01:42:17.809Z,11.77
2023-04-30T01:45:03.991Z,14.27
2023-04-30T01:47:40.357Z,13.87
2023-04-30T01:50:26.923Z,13.47
2023-04-30T01:52:59.092Z,11.43
2023-04-30T01:55:32.125Z,13.83
2023-04-30T01:58:02.910Z,14.30
2023-04-30T02:00:33.128Z,12.93
2023-04-30T02:03:02.303Z,12.63
2023-04-30T02:05:32.016Z,12.10
2023-04-30T02:08:02.034Z,12.83
2023-04-30T02:10:31.306Z,12.43
2023-04-30T02:13:00.151Z,13.23
2023-04-30T02:15:29.019Z,15.60
2023-04-30T02:17:59.616Z,13.60
2023-04-30T02:20:29.142Z,15.37
2023-04-30T02:22:58.486Z,12.93
2023-04-30T02:25:27.516Z,11.77
2023-04-30T02:27:56.278Z,12.90
2023-04-30T02:30:24.941Z,13.53
2023-04-30T02:32:53.648Z,12.40
2023-04-30T02:35:24.031Z,12.80
2023-04-30T02:37:52.695Z,12.23
2023-04-30T02:40:21.444Z,11.73
2023-04-30T02:42:50.555Z,12.00
2023-04-30T02:45:19.322Z,12.80
2023-04-30T02:47:49.168Z,12.17
2023-04-30T02:50:18.132Z,13.80
2023-04-30T02:52:48.357Z,12.70
2023-04-30T02:55:17.427Z,14.17
2023-04-30T02:57:46.221Z,13.63
2023-04-30T03:00:15.708Z,13.57
2023-04-30T03:02:44.566Z,14.80
2023-04-30T03:05:13.537Z,14.13
2023-04-30T03:07:42.417Z,12.97
2023-04-30T03:10:13.120Z,13.97
2023-04-30T03:12:42.067Z,14.60
2023-04-30T03:15:11.441Z,14.13
2023-04-30T03:17:40.292Z,14.27
2023-04-30T03:20:57.071Z,14.80
2023-04-30T03:23:38.439Z,14.60
2023-04-30T03:26:09.023Z,13.50
2023-04-30T03:28:37.873Z,16.53
2023-04-30T03:31:06.672Z,14.97
2023-04-30T03:33:35.526Z,14.37
2023-04-30T03:36:04.367Z,15.23
2023-04-30T03:38:33.303Z,15.37
2023-04-30T03:41:02.034Z,14.33
2023-04-30T03:43:35.665Z,17.10
2023-04-30T03:46:04.512Z,14.80
2023-04-30T03:48:33.520Z,16.07
2023-04-30T03:51:02.752Z,14.90
2023-04-30T03:53:31.461Z,14.30
2023-04-30T03:56:01.553Z,15.53
2023-04-30T03:58:30.695Z,16.60
2023-04-30T04:01:00.787Z,15.10
2023-04-30T04:03:29.603Z,18.73
2023-04-30T04:05:58.600Z,17.20
2023-04-30T04:08:43.470Z,14.27
2023-04-30T04:11:12.669Z,16.60
2023-04-30T04:13:41.425Z,14.10
2023-04-30T04:16:10.224Z,16.50
2023-04-30T04:18:39.065Z,16.40
2023-04-30T04:21:08.104Z,17.10
2023-04-30T04:23:36.912Z,17.27
2023-04-30T04:26:07.180Z,15.17
2023-04-30T04:28:36.894Z,14.30
2023-04-30T04:31:06.130Z,16.67
2023-04-30T04:33:35.141Z,15.67
2023-04-30T04:36:03.959Z,14.30
2023-04-30T04:38:32.663Z,16.40
2023-04-30T04:41:01.643Z,14.00
2023-04-30T04:43:31.911Z,17.70
2023-04-30T04:46:00.781Z,15.37
2023-04-30T04:48:29.361Z,14.57
2023-04-30T04:50:58.432Z,14.13
2023-04-30T04:53:27.291Z,13.93
2023-04-30T04:55:56.734Z,14.73
2023-04-30T04:58:25.490Z,14.63
2023-04-30T05:00:55.606Z,15.10
2023-04-30T05:03:24.510Z,14.47
2023-04-30T05:05:53.930Z,13.87
2023-04-30T05:08:22.825Z,13.60
2023-04-30T05:10:51.812Z,14.33
2023-04-30T05:13:20.542Z,14.93
2023-04-30T05:15:51.071Z,13.77
2023-04-30T05:18:21.388Z,14.90
2023-04-30T05:20:50.271Z,14.10
2023-04-30T05:23:19.118Z,15.67
2023-04-30T05:25:48.130Z,16.53
2023-04-30T05:28:16.998Z,16.47
2023-04-30T05:30:45.871Z,14.60
2023-04-30T05:33:14.522Z,14.07
2023-04-30T05:35:44.835Z,14.27
2023-04-30T05:38:13.518Z,13.43
2023-04-30T05:40:42.619Z,14.57
2023-04-30T05:43:11.355Z,13.50
2023-04-30T05:45:40.095Z,13.03
2023-04-30T05:48:08.919Z,16.30
2023-04-30T05:50:37.987Z,14.93
2023-04-30T05:53:08.728Z,13.67
2023-04-30T05:55:37.543Z,14.10
2023-04-30T05:58:06.537Z,14.80
2023-04-30T06:00:36.205Z,12.83
2023-04-30T06:03:05.049Z,12.43
2023-04-30T06:05:34.061Z,12.63
2023-04-30T06:08:02.706Z,11.43
2023-04-30T06:10:33.020Z,11.03
2023-04-30T06:13:01.909Z,10.47
2023-04-30T06:15:30.631Z,10.93
2023-04-30T06:18:00.213Z,10.13
2023-04-30T06:20:28.923Z,12.10
2023-04-30T06:22:57.601Z,10.93
2023-04-30T06:25:26.695Z,11.00
2023-04-30T06:27:56.991Z,12.87
2023-04-30T06:30:30.595Z,10.07
2023-04-30T06:32:59.240Z,13.20
2023-04-30T06:35:28.115Z,11.23
2023-04-30T06:37:56.848Z,11.57
2023-04-30T06:40:25.500Z,13.10
2023-04-30T06:42:54.660Z,12.57
2023-04-30T06:45:25.014Z,12.23
2023-04-30T06:47:53.678Z,11.30
2023-04-30T06:50:22.704Z,11.60
2023-04-30T06:52:51.469Z,11.67
2023-04-30T06:55:20.481Z,9.93
2023-04-30T06:57:50.619Z,10.87
2023-04-30T07:00:19.891Z,11.77
2023-04-30T07:02:52.261Z,10.43
2023-04-30T07:05:21.072Z,8.90
2023-04-30T07:07:50.294Z,9.87
2023-04-30T07:10:19.003Z,9.63
2023-04-30T07:12:48.064Z,11.07
2023-04-30T07:15:16.957Z,7.80
2023-04-30T07:17:45.744Z,8.17
2023-04-30T07:20:16.904Z,7.63
2023-04-30T07:22:46.276Z,13.87
2023-04-30T07:25:15.625Z,9.43
2023-04-30T07:27:45.196Z,9.00
2023-04-30T07:30:14.639Z,7.03
2023-04-30T07:32:43.821Z,7.20
2023-04-30T07:35:12.575Z,6.73
2023-04-30T07:37:44.124Z,9.30
2023-04-30T07:40:22.022Z,7.10
2023-04-30T07:42:57.796Z,7.17
2023-04-30T07:45:26.482Z,7.07
2023-04-30T07:47:55.133Z,8.43
2023-04-30T07:50:23.815Z,9.20
2023-04-30T07:52:53.962Z,8.43
2023-04-30T07:55:22.864Z,7.17
2023-04-30T07:57:51.505Z,7.07
2023-04-30T08:00:20.441Z,6.10
2023-04-30T08:02:50.119Z,7.77
2023-04-30T08:05:18.972Z,6.80
2023-04-30T08:07:47.455Z,9.03
2023-04-30T08:10:17.532Z,6.67
2023-04-30T08:12:46.894Z,6.60
2023-04-30T08:15:15.699Z,5.85
2023-04-30T08:17:44.989Z,8.35
2023-04-30T08:20:14.018Z,5.28
2023-04-30T08:22:42.723Z,6.03
2023-04-30T08:25:13.340Z,7.00
2023-04-30T08:27:43.511Z,5.28
2023-04-30T08:30:12.915Z,4.15
2023-04-30T08:32:41.756Z,5.25
2023-04-30T08:35:11.439Z,4.13
2023-04-30T08:37:40.077Z,3.90
2023-04-30T08:40:12.138Z,6.20
2023-04-30T08:42:47.516Z,5.43
2023-04-30T08:45:16.421Z,3.53
2023-04-30T08:47:46.587Z,4.10
2023-04-30T08:50:15.108Z,5.00
2023-04-30T08:52:45.161Z,4.30
2023-04-30T08:55:13.782Z,3.38
2023-04-30T08:57:42.543Z,4.07
2023-04-30T09:00:13.850Z,3.45
2023-04-30T09:02:43.542Z,3.92
2023-04-30T09:05:13.895Z,3.95
2023-04-30T09:07:55.580Z,3.17
2023-04-30T09:10:35.097Z,4.25
2023-04-30T09:13:05.876Z,3.72
2023-04-30T09:15:37.649Z,4.70
2023-04-30T09:18:11.821Z,2.63
2023-04-30T09:20:55.540Z,3.17
2023-04-30T09:23:24.604Z,4.05
2023-04-30T09:25:53.487Z,3.95
2023-04-30T09:28:26.593Z,3.55
2023-04-30T09:30:58.805Z,2.88
2023-04-30T09:33:27.530Z,3.38
2023-04-30T09:35:56.229Z,3.35
2023-04-30T09:38:29.714Z,4.32
2023-04-30T09:41:00.443Z,3.05
2023-04-30T09:43:29.483Z,3.20
2023-04-30T09:46:00.860Z,2.65
2023-04-30T09:48:29.920Z,3.25
2023-04-30T09:50:58.706Z,4.03
2023-04-30T09:53:29.330Z,3.33
2023-04-30T09:56:03.042Z,3.83
2023-04-30T09:58:34.574Z,3.75
2023-04-30T10:01:08.197Z,2.83
2023-04-30T10:03:37.639Z,2.90
2023-04-30T10:06:07.674Z,4.00
2023-04-30T10:08:41.896Z,3.38
2023-04-30T10:11:13.063Z,4.72
2023-04-30T10:13:46.969Z,2.72
2023-04-30T10:16:28.885Z,2.10
2023-04-30T10:19:00.904Z,2.80
2023-04-30T10:21:30.085Z,2.03
2023-04-30T10:23:59.729Z,3.65
2023-04-30T10:26:30.088Z,3.30
2023-04-30T10:29:01.236Z,5.07
2023-04-30T10:31:32.397Z,3.13
2023-04-30T10:34:08.158Z,3.67
2023-04-30T10:36:44.775Z,2.90
2023-04-30T10:39:14.399Z,2.60
2023-04-30T10:41:48.043Z,4.10
2023-04-30T10:44:22.922Z,5.32
2023-04-30T10:47:01.025Z,3.22
2023-04-30T10:49:29.929Z,3.75
2023-04-30T10:52:02.092Z,3.97
2023-04-30T10:54:40.251Z,3.00
2023-04-30T10:57:14.313Z,3.40
2023-04-30T10:59:53.639Z,2.45
2023-04-30T11:02:23.952Z,3.22
2023-04-30T11:05:19.972Z,1.90
2023-04-30T11:07:50.604Z,2.35
2023-04-30T11:10:23.229Z,1.88
2023-04-30T11:12:53.149Z,2.65
2023-04-30T11:15:25.989Z,2.10
2023-04-30T11:17:59.554Z,3.33
2023-04-30T11:20:29.306Z,3.30
2023-04-30T11:23:11.662Z,3.53
2023-04-30T11:25:45.075Z,2.00
2023-04-30T11:28:17.841Z,1.90
2023-04-30T11:30:54.465Z,3.50
2023-04-30T11:33:26.230Z,2.47
2023-04-30T11:35:56.435Z,2.58
2023-04-30T11:38:28.479Z,2.42
2023-04-30T11:40:58.177Z,1.50
2023-04-30T11:43:28.215Z,1.88
2023-04-30T11:46:08.509Z,1.25
2023-04-30T11:48:40.277Z,1.52
2023-04-30T11:51:16.964Z,1.65
2023-04-30T11:53:48.878Z,1.70
2023-04-30T11:56:20.740Z,1.98
2023-04-30T11:58:50.537Z,1.30
2023-04-30T12:01:20.358Z,1.10
2023-04-30T12:03:53.526Z,1.55
2023-04-30T12:06:26.429Z,3.58
2023-04-30T12:08:55.812Z,1.35
2023-04-30T12:11:26.921Z,1.95
2023-04-30T12:13:56.782Z,1.30
2023-04-30T12:16:26.791Z,1.23
2023-04-30T12:18:56.985Z,1.23
2023-04-30T12:21:25.798Z,1.30
2023-04-30T12:23:54.511Z,1.73
2023-04-30T12:26:23.555Z,2.35
2023-04-30T12:28:53.769Z,2.30
2023-04-30T12:31:22.546Z,1.48
2023-04-30T12:33:58.766Z,1.73
2023-04-30T12:36:34.293Z,1.67
2023-04-30T12:39:09.762Z,2.13
2023-04-30T12:41:41.654Z,1.20
2023-04-30T12:44:18.218Z,1.27
2023-04-30T12:46:48.244Z,2.28
2023-04-30T12:49:29.048Z,1.55
2023-04-30T12:52:02.721Z,2.08
2023-04-30T12:54:32.791Z,1.63
2023-04-30T12:57:03.597Z,1.10
2023-04-30T12:59:33.814Z,1.35
2023-04-30T13:02:13.125Z,2.03
2023-04-30T13:04:43.874Z,1.27
2023-04-30T13:07:12.771Z,1.60
2023-04-30T13:09:41.548Z,1.20
2023-04-30T13:12:10.458Z,1.80
2023-04-30T13:14:39.111Z,1.48
2023-04-30T13:17:09.973Z,1.27
2023-04-30T13:19:38.579Z,1.58
2023-04-30T13:22:08.693Z,1.55
2023-04-30T13:24:37.464Z,1.40
2023-04-30T13:27:06.229Z,1.30
2023-04-30T13:29:35.138Z,1.58
2023-04-30T13:32:04.285Z,1.13
2023-04-30T13:34:33.062Z,1.88
2023-04-30T13:37:01.859Z,1.40
2023-04-30T13:39:32.001Z,2.00
2023-04-30T13:42:00.474Z,1.10
2023-04-30T13:44:32.875Z,1.80
2023-04-30T13:47:01.727Z,1.95
2023-04-30T13:49:30.549Z,2.30
2023-04-30T13:51:59.327Z,1.85
2023-04-30T13:54:28.051Z,1.35
2023-04-30T13:56:59.718Z,2.33
2023-04-30T13:59:29.019Z,1.67
2023-04-30T14:01:57.714Z,1.00
2023-04-30T14:04:26.326Z,1.10
2023-04-30T14:06:56.695Z,2.17
2023-04-30T14:09:25.438Z,1.48
2023-04-30T14:11:56.171Z,2.80
2023-04-30T14:14:26.359Z,2.15
2023-04-30T14:16:55.363Z,0.95
2023-04-30T14:19:24.290Z,0.75
2023-04-30T14:21:52.901Z,0.88
2023-04-30T14:24:21.564Z,0.77
2023-04-30T14:26:50.189Z,0.75
2023-04-30T14:29:21.551Z,2.58
2023-04-30T14:31:52.153Z,1.25
2023-04-30T14:34:21.094Z,1.67
2023-04-30T14:36:49.846Z,1.08
2023-04-30T14:39:18.551Z,1.92
2023-04-30T14:41:47.200Z,2.35
2023-04-30T14:44:15.784Z,1.42
2023-04-30T14:46:44.694Z,1.75
2023-04-30T14:49:14.912Z,1.35
2023-04-30T14:51:43.682Z,0.80
2023-04-30T14:54:12.350Z,1.08
2023-04-30T14:56:41.188Z,1.45
2023-04-30T14:59:09.819Z,1.05
2023-04-30T15:01:38.708Z,1.13
2023-04-30T15:04:07.463Z,0.93
2023-04-30T15:06:37.798Z,0.95
2023-04-30T15:09:07.128Z,1.67
2023-04-30T15:11:35.904Z,1.48
2023-04-30T15:14:04.681Z,0.70
2023-04-30T15:16:33.778Z,0.82
2023-04-30T15:19:02.894Z,2.92
2023-04-30T15:21:34.149Z,1.40
2023-04-30T15:24:04.444Z,1.40
2023-04-30T15:26:33.302Z,1.38
2023-04-30T15:29:02.230Z,1.20
2023-04-30T15:31:32.889Z,0.80
2023-04-30T15:34:01.666Z,0.90
2023-04-30T15:36:30.448Z,1.00
2023-04-30T15:38:59.233Z,1.30
2023-04-30T15:41:29.379Z,1.10
2023-04-30T15:43:58.447Z,1.05
2023-04-30T15:46:27.660Z,1.10
2023-04-30T15:48:56.307Z,1.23
2023-04-30T15:51:24.981Z,0.90
2023-04-30T15:53:54.171Z,1.63
2023-04-30T15:56:25.823Z,0.90
2023-04-30T15:58:56.445Z,1.00
2023-04-30T16:01:25.030Z,2.38
2023-04-30T16:03:53.961Z,0.90
2023-04-30T16:06:22.815Z,1.08
2023-04-30T16:08:51.718Z,1.20
2023-04-30T16:11:22.838Z,1.30
2023-04-30T16:13:51.632Z,1.13
2023-04-30T16:16:21.958Z,1.73
2023-04-30T16:18:50.961Z,0.93
2023-04-30T16:21:19.664Z,1.00
2023-04-30T16:23:48.539Z,1.70
2023-04-30T16:26:17.370Z,1.15
2023-04-30T16:28:46.724Z,1.20
2023-04-30T16:31:17.042Z,1.65
2023-04-30T16:33:47.246Z,1.10
2023-04-30T16:36:16.008Z,1.63
2023-04-30T16:38:46.455Z,2.45
2023-04-30T16:41:16.941Z,1.13
2023-04-30T16:43:46.003Z,2.03
2023-04-30T16:46:14.721Z,1.42
2023-04-30T16:48:43.453Z,1.48
2023-04-30T16:51:13.983Z,1.00
2023-04-30T16:53:42.563Z,1.85
2023-04-30T16:56:11.251Z,2.20
2023-04-30T16:58:40.074Z,1.20
2023-04-30T17:01:08.778Z,3.70
2023-04-30T17:03:37.684Z,2.25
2023-04-30T17:06:07.330Z,1.40
2023-04-30T17:08:37.485Z,2.00
2023-04-30T17:11:06.400Z,2.00
2023-04-30T17:13:35.024Z,2.67
2023-04-30T17:16:03.832Z,2.42
2023-04-30T17:18:32.477Z,2.00
2023-04-30T17:21:01.029Z,1.75
2023-04-30T17:23:29.667Z,5.22
2023-04-30T17:26:01.319Z,2.30
2023-04-30T17:28:30.154Z,1.77
2023-04-30T17:30:58.960Z,3.33
2023-04-30T17:33:27.525Z,1.73
2023-04-30T17:35:56.449Z,2.97
2023-04-30T17:38:25.199Z,2.40
2023-04-30T17:40:54.332Z,1.75
2023-04-30T17:43:24.459Z,2.08
2023-04-30T17:45:53.767Z,2.05
2023-04-30T17:48:22.583Z,1.58
2023-04-30T17:50:51.320Z,2.08
2023-04-30T17:53:19.945Z,2.17
2023-04-30T17:55:48.988Z,1.75
2023-04-30T17:58:17.747Z,2.80
2023-04-30T18:00:47.993Z,1.98
2023-04-30T18:03:16.633Z,1.70
2023-04-30T18:05:45.273Z,2.38
2023-04-30T18:08:13.836Z,1.70
2023-04-30T18:10:42.575Z,3.70
2023-04-30T18:13:11.814Z,3.25
2023-04-30T18:15:40.487Z,2.17
2023-04-30T18:18:11.148Z,2.60
2023-04-30T18:20:39.959Z,2.20
2023-04-30T18:23:10.159Z,2.53
2023-04-30T18:25:38.913Z,2.33
2023-04-30T18:28:08.791Z,3.83
2023-04-30T18:30:37.615Z,2.40
2023-04-30T18:33:06.735Z,2.63
2023-04-30T18:35:36.850Z,3.45
2023-04-30T18:38:08.165Z,2.55
2023-04-30T18:40:36.851Z,2.00
2023-04-30T18:43:05.632Z,3.70
2023-04-30T18:45:34.301Z,2.83
2023-04-30T18:48:03.123Z,3.08
2023-04-30T18:50:31.978Z,3.20
2023-04-30T18:53:02.241Z,3.30
2023-04-30T18:55:30.894Z,2.67
2023-04-30T18:57:59.481Z,3.33
2023-04-30T19:00:28.265Z,2.78
2023-04-30T19:02:57.018Z,2.88
2023-04-30T19:05:25.639Z,4.20
2023-04-30T19:07:54.241Z,4.70
2023-04-30T19:10:24.436Z,3.15
2023-04-30T19:12:53.176Z,4.03
2023-04-30T19:15:24.903Z,3.35
2023-04-30T19:17:53.674Z,2.10
2023-04-30T19:20:22.528Z,4.70
2023-04-30T19:22:51.415Z,3.38
2023-04-30T19:25:20.388Z,4.47
2023-04-30T19:27:51.379Z,2.17
2023-04-30T19:30:20.185Z,2.40
2023-04-30T19:32:49.112Z,4.73
2023-04-30T19:35:18.194Z,3.20
2023-04-30T19:37:46.780Z,2.42
2023-04-30T19:40:16.215Z,2.78
2023-04-30T19:42:44.924Z,3.00
2023-04-30T19:45:15.536Z,6.00
2023-04-30T19:47:44.302Z,4.57
2023-04-30T19:50:13.673Z,4.13
2023-04-30T19:52:42.581Z,7.10
2023-04-30T19:55:11.589Z,3.57
2023-04-30T19:57:40.231Z,3.00
2023-04-30T20:00:13.029Z,3.93
2023-04-30T20:02:43.863Z,5.70
2023-04-30T20:05:12.738Z,2.50
2023-04-30T20:07:42.403Z,3.47
2023-04-30T20:10:11.842Z,4.07
2023-04-30T20:12:40.707Z,3.07
2023-04-30T20:15:10.199Z,4.10
2023-04-30T20:17:38.846Z,3.70
2023-04-30T20:20:09.993Z,4.40
2023-04-30T20:22:39.074Z,3.53
2023-04-30T20:25:08.489Z,2.63
2023-04-30T20:27:37.342Z,3.17
2023-04-30T20:30:06.626Z,3.03
2023-04-30T20:32:39.211Z,3.80
2023-04-30T20:35:10.241Z,3.20
2023-04-30T20:37:39.156Z,3.80
2023-04-30T20:40:09.228Z,3.37
2023-04-30T20:42:38.832Z,4.63
2023-04-30T20:45:08.600Z,2.60
2023-04-30T20:47:37.436Z,2.90
2023-04-30T20:50:07.810Z,3.60
2023-04-30T20:52:38.121Z,3.37
2023-04-30T20:55:07.416Z,3.47
2023-04-30T20:57:36.085Z,3.00
2023-04-30T21:00:06.825Z,4.60
2023-04-30T21:02:35.769Z,3.13
2023-04-30T21:05:06.528Z,5.03
2023-04-30T21:07:35.541Z,4.67
2023-04-30T21:10:06.787Z,3.77
2023-04-30T21:12:36.100Z,5.37
2023-04-30T21:15:05.945Z,4.27
2023-04-30T21:17:34.694Z,6.03
2023-04-30T21:20:04.288Z,3.87
2023-04-30T21:22:37.004Z,6.33
2023-04-30T21:25:10.888Z,3.20
2023-04-30T21:27:39.843Z,4.20
2023-04-30T21:30:11.233Z,6.47
2023-04-30T21:32:40.054Z,6.30
2023-04-30T21:35:09.101Z,5.00
2023-04-30T21:37:37.903Z,5.00
2023-04-30T21:40:09.739Z,3.67
2023-04-30T21:42:38.589Z,5.77
2023-04-30T21:45:08.362Z,7.80
2023-04-30T21:47:39.030Z,5.73
2023-04-30T21:50:09.251Z,4.17
2023-04-30T21:52:40.092Z,5.30
2023-04-30T21:55:11.188Z,6.23
2023-04-30T21:57:41.460Z,7.17
2023-04-30T22:00:14.426Z,6.60
2023-04-30T22:02:49.356Z,6.00
2023-04-30T22:05:19.139Z,7.87
2023-04-30T22:07:47.928Z,5.10
2023-04-30T22:10:18.278Z,7.60
2023-04-30T22:12:47.918Z,6.40
2023-04-30T22:15:17.009Z,5.27
2023-04-30T22:17:46.353Z,4.23
2023-04-30T22:20:15.215Z,5.27
2023-04-30T22:22:43.892Z,6.40
2023-04-30T22:25:12.575Z,5.80
2023-04-30T22:27:42.725Z,6.47
2023-04-30T22:30:11.983Z,6.57
2023-04-30T22:32:40.824Z,5.43
2023-04-30T22:35:12.164Z,7.43
2023-04-30T22:37:40.973Z,8.73
2023-04-30T22:40:10.522Z,7.37
2023-04-30T22:42:41.306Z,9.47
2023-04-30T22:45:12.092Z,7.87
2023-04-30T22:47:41.820Z,5.63
2023-04-30T22:50:11.809Z,5.27
2023-04-30T22:52:40.873Z,9.77
2023-04-30T22:55:11.059Z,8.77
2023-04-30T22:57:39.913Z,6.13
2023-04-30T23:00:12.856Z,6.90
2023-04-30T23:02:41.528Z,7.17
2023-04-30T23:05:12.082Z,5.67
2023-04-30T23:07:40.924Z,7.97
2023-04-30T23:10:10.404Z,8.10
2023-04-30T23:12:38.980Z,6.17
2023-04-30T23:15:08.532Z,6.73
2023-04-30T23:17:38.817Z,6.60
2023-04-30T23:20:09.295Z,6.90
2023-04-30T23:22:38.109Z,5.63
2023-04-30T23:25:07.438Z,6.67
2023-04-30T23:27:36.224Z,5.97
2023-04-30T23:30:05.559Z,5.47
2023-04-30T23:32:34.242Z,5.53
2023-04-30T23:35:04.710Z,5.77
2023-04-30T23:37:33.429Z,7.27
2023-04-30T23:40:02.099Z,7.80
2023-04-30T23:42:30.851Z,5.43
2023-04-30T23:44:59.566Z,6.07
2023-04-30T23:47:28.603Z,5.90
2023-04-30T23:49:57.671Z,7.90
2023-04-30T23:52:28.027Z,6.10
2023-04-30T23:54:57.002Z,6.03
2023-04-30T23:57:27.707Z,6.00
2023-04-30T23:59:56.737Z,5.97
